Time;durP1;ratioP1;P1;durP2;ratioP2;P2;SDS_P1;SDS_P2;PMS_P1;PMS_P2;Temp;Humidity;BMP_temperature;BMP_pressure;BME280_temperature;BME280_humidity;BME280_pressure;Samples;Min_cycle;Max_cycle;Signal;HPM_P1;HPM_P2
2021/03/20 00:00:17;;;;;;;11.23;5.95;;;1.40;99.90;;;;;;5008953;28;20149;-71
2021/03/20 00:02:42;;;;;;;13.20;6.40;;;1.50;99.90;;;;;;5006787;28;20112;-70
2021/03/20 00:05:09;;;;;;;15.10;7.05;;;1.40;99.90;;;;;;5009832;28;20117;-75
2021/03/20 00:07:35;;;;;;;13.50;6.60;;;1.40;99.90;;;;;;5008987;28;20064;-70
2021/03/20 00:10:01;;;;;;;14.57;6.82;;;1.40;99.90;;;;;;5008538;28;20048;-71
2021/03/20 00:12:27;;;;;;;13.07;6.63;;;1.40;99.90;;;;;;5007245;28;20538;-70
2021/03/20 00:14:52;;;;;;;13.73;6.65;;;1.30;99.90;;;;;;5007665;28;20125;-70
2021/03/20 00:17:18;;;;;;;14.57;6.75;;;1.30;99.90;;;;;;5007832;28;20467;-70
2021/03/20 00:19:44;;;;;;;15.32;7.20;;;1.30;99.90;;;;;;5007904;28;20056;-70
2021/03/20 00:22:09;;;;;;;12.57;6.47;;;1.30;99.90;;;;;;5007844;28;20109;-75
2021/03/20 00:24:35;;;;;;;22.77;10.48;;;1.20;99.90;;;;;;5007409;28;20038;-70
2021/03/20 00:27:00;;;;;;;26.40;12.48;;;1.20;99.90;;;;;;5008448;28;20205;-70
2021/03/20 00:29:26;;;;;;;56.78;23.23;;;1.20;99.90;;;;;;5007680;28;20040;-70
2021/03/20 00:31:52;;;;;;;89.22;36.85;;;1.20;99.90;;;;;;5007940;28;20488;-71
2021/03/20 00:34:17;;;;;;;88.20;38.90;;;1.20;99.90;;;;;;5006853;28;20046;-70
2021/03/20 00:36:43;;;;;;;56.15;24.08;;;1.10;99.90;;;;;;5008482;28;20157;-70
2021/03/20 00:39:09;;;;;;;33.75;15.70;;;1.00;99.90;;;;;;5007348;28;20042;-75
2021/03/20 00:41:37;;;;;;;20.77;10.52;;;1.00;99.90;;;;;;5006832;28;20037;-70
2021/03/20 00:44:03;;;;;;;19.15;10.48;;;1.00;99.90;;;;;;5007400;28;20022;-70
2021/03/20 00:46:29;;;;;;;17.27;8.90;;;1.00;99.90;;;;;;5007865;28;20076;-70
2021/03/20 00:48:54;;;;;;;18.88;9.07;;;1.00;99.90;;;;;;5007057;28;20030;-70
2021/03/20 00:51:20;;;;;;;18.38;8.93;;;0.90;99.90;;;;;;5007255;28;20026;-70
2021/03/20 00:53:46;;;;;;;14.40;7.63;;;0.90;99.90;;;;;;5007830;28;20037;-70
2021/03/20 00:56:12;;;;;;;12.48;6.72;;;0.90;99.90;;;;;;5027691;28;20092;-70
2021/03/20 00:58:39;;;;;;;12.02;6.43;;;0.90;99.90;;;;;;5027306;28;20443;-70
2021/03/20 01:01:11;;;;;;;14.82;8.07;;;0.90;99.90;;;;;;5008246;28;20045;-70
2021/03/20 01:03:38;;;;;;;19.55;9.05;;;0.90;99.90;;;;;;5007550;28;20080;-75
2021/03/20 01:06:06;;;;;;;22.92;10.52;;;0.90;99.90;;;;;;5007167;28;20069;-70
2021/03/20 01:08:32;;;;;;;18.50;7.70;;;0.80;99.90;;;;;;5006834;28;20034;-70
2021/03/20 01:10:58;;;;;;;23.80;7.90;;;0.80;99.90;;;;;;5006897;28;20534;-70
2021/03/20 01:13:23;;;;;;;21.95;8.80;;;0.70;99.90;;;;;;5007140;28;20029;-71
2021/03/20 01:15:49;;;;;;;19.85;8.98;;;0.70;99.90;;;;;;5006809;28;20034;-70
2021/03/20 01:18:16;;;;;;;24.98;8.73;;;0.70;99.90;;;;;;5007589;28;20092;-70
2021/03/20 01:20:42;;;;;;;27.77;10.98;;;0.80;99.90;;;;;;5006919;28;20038;-70
2021/03/20 01:23:08;;;;;;;23.90;9.52;;;0.70;99.90;;;;;;5008042;28;20041;-70
2021/03/20 01:25:34;;;;;;;32.38;11.00;;;0.70;99.90;;;;;;5006016;28;20423;-70
2021/03/20 01:27:59;;;;;;;28.67;10.38;;;0.60;99.90;;;;;;5007475;28;20030;-70
2021/03/20 01:30:36;;;;;;;28.70;10.23;;;0.60;99.90;;;;;;5005438;28;20026;-70
2021/03/20 01:33:02;;;;;;;19.38;7.97;;;0.70;99.90;;;;;;5006777;28;20053;-70
2021/03/20 01:35:28;;;;;;;17.42;7.80;;;0.70;99.90;;;;;;5005309;28;20120;-70
2021/03/20 01:37:54;;;;;;;14.27;6.75;;;0.70;99.90;;;;;;5008035;28;20037;-70
2021/03/20 01:40:31;;;;;;;15.05;7.22;;;0.60;99.90;;;;;;5005865;28;20033;-71
2021/03/20 01:42:57;;;;;;;13.85;6.25;;;0.60;99.90;;;;;;5007890;28;20037;-74
2021/03/20 01:45:28;;;;;;;14.57;7.07;;;0.60;99.90;;;;;;5006759;28;20369;-71
2021/03/20 01:48:03;;;;;;;16.48;7.78;;;0.60;99.90;;;;;;5006861;28;20582;-70
2021/03/20 01:50:31;;;;;;;18.67;8.73;;;0.60;99.90;;;;;;5005916;28;20069;-70
2021/03/20 01:53:02;;;;;;;21.67;10.32;;;0.50;99.90;;;;;;5006546;28;20612;-74
2021/03/20 01:55:28;;;;;;;19.83;9.90;;;0.50;99.90;;;;;;5006713;28;20042;-70
2021/03/20 01:58:03;;;;;;;20.52;9.15;;;0.50;99.90;;;;;;5006837;28;20048;-70
2021/03/20 02:00:31;;;;;;;16.35;8.15;;;0.40;99.90;;;;;;5006588;28;20065;-70
2021/03/20 02:02:57;;;;;;;14.75;8.43;;;0.40;99.90;;;;;;5005224;28;20033;-70
2021/03/20 02:05:29;;;;;;;16.60;9.70;;;0.40;99.90;;;;;;5006462;28;20064;-71
2021/03/20 02:07:55;;;;;;;19.67;10.48;;;0.50;99.90;;;;;;5005167;28;20034;-70
2021/03/20 02:10:23;;;;;;;16.70;9.38;;;0.50;99.90;;;;;;5007334;28;20037;-70
2021/03/20 02:12:55;;;;;;;18.13;10.45;;;0.40;99.90;;;;;;5005153;28;20048;-70
2021/03/20 02:15:27;;;;;;;17.08;9.13;;;0.40;99.90;;;;;;4987696;28;20109;-74
2021/03/20 02:18:18;;;;;;;;;;;0.40;99.90;;;;;;4987145;28;20057;-70
2021/03/20 02:21:26;;;;;;;16.13;8.68;;;0.40;99.90;;;;;;4978853;28;19924;-70
2021/03/20 02:24:29;;;;;;;18.63;10.07;;;0.30;99.90;;;;;;4983493;28;20141;-70
2021/03/20 02:27:35;;;;;;;15.45;8.70;;;0.20;99.90;;;;;;5006592;28;20438;-70
2021/03/20 02:30:04;;;;;;;19.67;10.18;;;0.10;99.90;;;;;;5005828;28;20151;-70
2021/03/20 02:32:32;;;;;;;20.88;10.60;;;0.10;99.90;;;;;;5006798;28;20057;-70
2021/03/20 02:35:07;;;;;;;20.95;9.82;;;0.10;99.90;;;;;;5005474;28;20041;-70
2021/03/20 02:37:59;;;;;;;19.33;10.15;;;0.10;99.90;;;;;;5005947;28;20048;-70
2021/03/20 02:40:32;;;;;;;24.87;12.33;;;0.20;99.90;;;;;;5005307;28;20037;-70
2021/03/20 02:43:20;;;;;;;23.13;12.48;;;0.20;99.90;;;;;;5006736;28;20292;-70
2021/03/20 02:46:09;;;;;;;22.48;11.63;;;0.20;99.90;;;;;;4997889;28;20504;-70
2021/03/20 02:49:01;;;;;;;20.98;10.40;;;0.20;99.90;;;;;;4995065;28;20207;-70
2021/03/20 02:51:52;;;;;;;15.57;8.98;;;0.20;99.90;;;;;;5006477;28;20445;-70
2021/03/20 02:54:33;;;;;;;16.48;10.13;;;0.20;99.90;;;;;;5004297;28;20184;-70
2021/03/20 02:57:08;;;;;;;18.42;10.48;;;0.20;99.90;;;;;;5006589;28;20046;-70
2021/03/20 02:59:39;;;;;;;19.73;10.38;;;0.10;99.90;;;;;;5009160;28;20523;-70
2021/03/20 03:02:10;;;;;;;17.45;9.80;;;0.20;99.90;;;;;;5010892;28;20033;-70
2021/03/20 03:04:59;;;;;;;13.85;8.40;;;0.20;99.90;;;;;;5009891;28;20030;-70
2021/03/20 03:07:30;;;;;;;14.20;8.25;;;0.10;99.90;;;;;;5009854;28;20080;-70
2021/03/20 03:10:04;;;;;;;14.32;7.75;;;0.10;99.90;;;;;;5009374;28;20030;-70
2021/03/20 03:12:49;;;;;;;18.50;8.43;;;0.10;99.90;;;;;;5009951;28;20076;-70
2021/03/20 03:15:23;;;;;;;14.60;7.93;;;0.00;99.90;;;;;;5009739;28;20056;-70
2021/03/20 03:17:55;;;;;;;14.60;7.72;;;0.00;99.90;;;;;;5009549;28;20058;-70
2021/03/20 03:20:26;;;;;;;14.60;7.88;;;0.00;99.90;;;;;;5009601;28;20526;-75
2021/03/20 03:23:00;;;;;;;13.07;7.45;;;0.00;99.90;;;;;;5009328;28;20041;-70
2021/03/20 03:25:27;;;;;;;17.15;7.93;;;-0.10;99.90;;;;;;5009230;28;20117;-70
2021/03/20 03:27:56;;;;;;;18.05;9.50;;;-0.20;99.90;;;;;;5009313;28;20037;-70
2021/03/20 03:30:24;;;;;;;16.80;9.90;;;-0.30;99.90;;;;;;5008435;28;20045;-70
2021/03/20 03:32:53;;;;;;;19.27;9.82;;;-0.20;99.90;;;;;;5009210;28;20037;-70
2021/03/20 03:35:29;;;;;;;23.77;11.65;;;-0.20;99.90;;;;;;5009630;28;20270;-73
2021/03/20 03:38:01;;;;;;;22.83;11.02;;;-0.20;99.90;;;;;;5008891;28;20042;-70
2021/03/20 03:40:27;;;;;;;20.17;10.50;;;-0.20;99.90;;;;;;5009634;28;20447;-70
2021/03/20 03:42:53;;;;;;;18.48;10.10;;;-0.10;99.90;;;;;;5008559;28;20034;-70
2021/03/20 03:45:20;;;;;;;21.58;10.20;;;-0.20;99.90;;;;;;5009266;28;20435;-70
2021/03/20 03:47:47;;;;;;;18.00;10.02;;;-0.20;99.90;;;;;;5008843;28;20037;-70
2021/03/20 03:50:24;;;;;;;16.00;9.40;;;-0.20;99.90;;;;;;5009862;28;20487;-75
2021/03/20 03:52:50;;;;;;;17.42;9.23;;;-0.20;99.90;;;;;;5008217;28;20041;-71
2021/03/20 03:55:16;;;;;;;18.13;10.00;;;-0.20;99.90;;;;;;5009167;28;20038;-70
2021/03/20 03:57:44;;;;;;;18.55;9.32;;;-0.20;99.90;;;;;;5007807;28;20042;-70
2021/03/20 04:00:20;;;;;;;14.52;8.70;;;-0.30;99.90;;;;;;5009504;28;20389;-70
2021/03/20 04:03:06;;;;;;;14.30;7.88;;;-0.30;99.90;;;;;;5007437;28;20038;-70
2021/03/20 04:06:00;;;;;;;11.55;6.70;;;-0.30;99.90;;;;;;5009356;28;20026;-70
2021/03/20 04:08:44;;;;;;;10.23;6.65;;;-0.30;99.90;;;;;;5007825;28;20037;-70
2021/03/20 04:11:36;;;;;;;11.55;6.70;;;-0.30;99.90;;;;;;5009264;28;20034;-70
2021/03/20 04:14:19;;;;;;;13.63;7.05;;;-0.30;99.90;;;;;;5008527;28;20076;-70
2021/03/20 04:17:01;;;;;;;11.40;6.72;;;-0.40;99.90;;;;;;5008375;28;20080;-70
2021/03/20 04:19:39;;;;;;;10.53;5.13;;;-0.30;99.90;;;;;;5008922;28;20141;-70
2021/03/20 04:22:19;;;;;;;11.23;7.00;;;-0.30;99.90;;;;;;4996760;28;20331;-70
2021/03/20 04:25:00;;;;;;;10.98;6.70;;;-0.30;99.90;;;;;;5008852;28;20029;-70
2021/03/20 04:27:33;;;;;;;15.98;7.13;;;-0.30;99.90;;;;;;5008114;28;20112;-71
2021/03/20 04:30:12;;;;;;;10.23;6.70;;;-0.30;99.90;;;;;;5006682;28;20129;-70
2021/03/20 04:32:49;;;;;;;10.23;6.03;;;-0.40;99.90;;;;;;5006604;28;20468;-70
2021/03/20 04:35:24;;;;;;;11.48;6.32;;;-0.40;99.90;;;;;;4999155;28;20112;-70
2021/03/20 04:37:53;;;;;;;12.60;6.40;;;-0.40;99.90;;;;;;5008782;28;20049;-75
2021/03/20 04:40:34;;;;;;;9.40;5.57;;;-0.40;99.90;;;;;;5008419;28;20125;-70
2021/03/20 04:42:59;;;;;;;12.57;5.82;;;-0.40;99.90;;;;;;5006911;28;20049;-70
2021/03/20 04:45:32;;;;;;;10.77;6.38;;;-0.40;99.90;;;;;;5008444;28;20057;-70
2021/03/20 04:48:17;;;;;;;10.73;5.63;;;-0.40;99.90;;;;;;5007759;28;20212;-70
2021/03/20 04:50:46;;;;;;;10.77;6.70;;;-0.40;99.90;;;;;;5008553;28;20038;-70
2021/03/20 04:53:14;;;;;;;12.85;6.45;;;-0.60;99.90;;;;;;5005934;28;20041;-70
2021/03/20 04:55:41;;;;;;;19.30;10.50;;;-0.60;99.90;;;;;;5008246;28;20062;-70
2021/03/20 04:58:12;;;;;;;12.65;7.63;;;-0.50;99.90;;;;;;5008137;28;20033;-71
2021/03/20 05:00:54;;;;;;;13.63;7.32;;;-0.50;99.90;;;;;;5008442;28;20041;-70
2021/03/20 05:03:34;;;;;;;11.82;5.88;;;-0.50;99.90;;;;;;5006892;28;20042;-74
2021/03/20 05:06:04;;;;;;;11.20;6.20;;;-0.50;99.90;;;;;;5008635;28;20030;-70
2021/03/20 05:08:42;;;;;;;10.13;6.00;;;-0.60;99.90;;;;;;5006448;28;20030;-70
2021/03/20 05:11:08;;;;;;;11.75;6.07;;;-0.60;99.90;;;;;;5008248;28;20601;-70
2021/03/20 05:13:46;;;;;;;13.25;6.70;;;-0.60;99.90;;;;;;5008314;28;20034;-70
2021/03/20 05:16:15;;;;;;;11.52;6.30;;;-0.60;99.90;;;;;;5008233;28;20444;-70
2021/03/20 05:18:40;;;;;;;10.80;6.07;;;-0.70;99.90;;;;;;5007312;28;20084;-71
2021/03/20 05:21:06;;;;;;;9.55;5.97;;;-0.70;99.90;;;;;;5006991;28;20034;-70
2021/03/20 05:23:32;;;;;;;9.88;5.65;;;-0.70;99.90;;;;;;5006280;28;20049;-70
2021/03/20 05:25:57;;;;;;;12.07;6.28;;;-0.70;99.90;;;;;;5008055;28;20029;-70
2021/03/20 05:28:23;;;;;;;11.57;6.60;;;-0.70;99.90;;;;;;5005865;28;20033;-70
2021/03/20 05:30:49;;;;;;;11.15;5.95;;;-0.60;99.90;;;;;;5007509;28;20065;-70
2021/03/20 05:33:14;;;;;;;12.57;6.90;;;-0.60;99.90;;;;;;5007833;28;20034;-70
2021/03/20 05:35:40;;;;;;;15.32;7.03;;;-0.60;99.90;;;;;;5007225;28;20044;-70
2021/03/20 05:38:05;;;;;;;13.95;8.27;;;-0.60;99.90;;;;;;5007073;28;20076;-71
2021/03/20 05:40:33;;;;;;;12.55;7.95;;;-0.70;99.90;;;;;;5007732;28;20045;-70
2021/03/20 05:43:17;;;;;;;13.43;6.53;;;-0.70;99.90;;;;;;5006525;28;20128;-70
2021/03/20 05:45:45;;;;;;;10.27;5.97;;;-0.80;99.90;;;;;;5007733;28;20506;-70
2021/03/20 05:48:27;;;;;;;8.60;5.00;;;-0.80;99.90;;;;;;5007101;28;20032;-70
2021/03/20 05:50:55;;;;;;;9.40;5.45;;;-0.80;99.90;;;;;;5007831;28;20042;-71
2021/03/20 05:53:42;;;;;;;11.65;5.75;;;-0.70;99.90;;;;;;5004306;28;20038;-70
2021/03/20 05:56:33;;;;;;;9.98;4.93;;;-0.70;99.90;;;;;;5005601;28;20042;-70
2021/03/20 05:59:24;;;;;;;7.30;4.35;;;-0.80;99.90;;;;;;5007746;28;20040;-70
2021/03/20 06:02:00;;;;;;;9.45;5.30;;;-0.80;99.90;;;;;;5007325;28;20368;-70
2021/03/20 06:04:55;;;;;;;10.93;5.93;;;-0.70;99.90;;;;;;5006227;28;20388;-70
2021/03/20 06:08:00;;;;;;;14.57;5.97;;;-0.80;99.90;;;;;;5005339;28;20101;-70
2021/03/20 06:10:47;;;;;;;12.18;5.97;;;-0.70;99.90;;;;;;5003347;28;20126;-70
2021/03/20 06:13:19;;;;;;;13.30;6.43;;;-0.80;99.90;;;;;;5003202;28;20105;-70
2021/03/20 06:16:24;;;;;;;13.60;6.82;;;-0.80;99.90;;;;;;5008482;28;20042;-74
2021/03/20 06:19:17;;;;;;;13.57;7.00;;;-0.80;99.90;;;;;;4987456;28;20179;-70
2021/03/20 06:22:02;;;;;;;;;;;-0.80;99.90;;;;;;5012329;28;20034;-70
2021/03/20 06:24:53;;;;;;;12.32;5.93;;;-0.70;99.90;;;;;;5006083;28;20270;-75
2021/03/20 06:27:23;;;;;;;13.40;5.95;;;-0.70;99.90;;;;;;5009318;28;20113;-71
2021/03/20 06:30:10;;;;;;;12.40;6.30;;;-0.70;99.90;;;;;;5014071;28;20042;-75
2021/03/20 06:32:44;;;;;;;12.25;6.10;;;-0.70;99.90;;;;;;4999422;28;20026;-70
2021/03/20 06:35:16;;;;;;;12.30;6.43;;;-0.60;99.90;;;;;;5008727;28;20040;-70
2021/03/20 06:37:48;;;;;;;11.43;6.53;;;-0.60;99.90;;;;;;5006560;28;20032;-70
2021/03/20 06:40:16;;;;;;;12.25;6.80;;;-0.60;99.90;;;;;;5014264;28;20038;-70
2021/03/20 06:42:44;;;;;;;16.48;6.57;;;-0.50;99.90;;;;;;5005610;28;20363;-70
2021/03/20 06:45:19;;;;;;;11.73;6.05;;;-0.50;99.90;;;;;;5008203;28;20038;-70
2021/03/20 06:47:51;;;;;;;15.82;8.25;;;-0.40;99.90;;;;;;5010352;28;20097;-71
2021/03/20 06:50:23;;;;;;;15.60;7.90;;;-0.30;99.90;;;;;;5011587;28;20120;-71
2021/03/20 06:52:55;;;;;;;17.65;7.10;;;-0.20;99.90;;;;;;5004810;28;20034;-71
2021/03/20 06:55:26;;;;;;;16.27;7.03;;;-0.30;99.90;;;;;;5003096;28;20041;-71
2021/03/20 06:57:52;;;;;;;14.48;7.32;;;-0.20;99.90;;;;;;5005651;28;20029;-70
2021/03/20 07:00:24;;;;;;;14.75;8.38;;;-0.20;99.90;;;;;;5007990;28;20037;-75
2021/03/20 07:03:10;;;;;;;13.95;8.57;;;-0.10;99.90;;;;;;5015401;28;20060;-70
2021/03/20 07:06:11;;;;;;;16.92;8.38;;;0.00;99.90;;;;;;5003296;28;20054;-70
2021/03/20 07:08:57;;;;;;;16.13;7.45;;;0.00;99.90;;;;;;5008884;28;20037;-70
2021/03/20 07:11:26;;;;;;;17.08;8.43;;;0.00;99.90;;;;;;5003870;28;20030;-71
2021/03/20 07:13:59;;;;;;;14.80;8.15;;;-0.10;99.90;;;;;;5008916;28;20038;-70
2021/03/20 07:16:28;;;;;;;15.38;8.32;;;0.00;99.90;;;;;;5001147;28;20401;-74
2021/03/20 07:19:03;;;;;;;17.00;8.60;;;0.10;99.90;;;;;;5010305;28;20529;-71
2021/03/20 07:21:30;;;;;;;18.63;9.88;;;0.20;99.90;;;;;;5011843;28;20047;-75
2021/03/20 07:24:01;;;;;;;16.95;8.95;;;0.30;99.90;;;;;;5006290;28;20083;-71
2021/03/20 07:26:28;;;;;;;15.25;8.60;;;0.50;99.90;;;;;;5011197;28;20037;-71
2021/03/20 07:28:57;;;;;;;14.95;6.72;;;0.60;99.90;;;;;;5007179;28;20101;-70
2021/03/20 07:31:23;;;;;;;10.93;6.78;;;0.70;99.90;;;;;;5004598;28;20424;-70
2021/03/20 07:33:52;;;;;;;11.75;7.28;;;0.80;99.90;;;;;;5010631;28;20036;-70
2021/03/20 07:36:35;;;;;;;10.23;6.43;;;0.90;99.90;;;;;;5012452;28;20038;-71
2021/03/20 07:39:21;;;;;;;10.38;5.32;;;1.00;99.90;;;;;;5010381;28;20022;-71
2021/03/20 07:41:59;;;;;;;8.60;5.00;;;1.20;99.90;;;;;;5015483;28;20387;-70
2021/03/20 07:44:27;;;;;;;9.07;5.40;;;1.30;99.90;;;;;;5011093;28;20418;-70
2021/03/20 07:46:55;;;;;;;10.30;5.80;;;1.50;99.90;;;;;;5014728;28;20145;-70
2021/03/20 07:49:33;;;;;;;9.88;5.18;;;1.60;99.90;;;;;;5013751;28;20374;-70
2021/03/20 07:52:01;;;;;;;9.32;4.70;;;1.60;99.90;;;;;;5018017;28;20230;-69
2021/03/20 07:54:36;;;;;;;10.57;5.47;;;1.70;99.90;;;;;;5008338;28;20479;-70
2021/03/20 07:57:07;;;;;;;11.30;6.30;;;1.70;99.90;;;;;;5016763;28;20515;-69
2021/03/20 07:59:34;;;;;;;13.13;6.20;;;2.00;99.90;;;;;;5001198;28;20120;-70
2021/03/20 08:02:03;;;;;;;11.30;5.88;;;2.30;99.90;;;;;;5009861;28;20280;-70
2021/03/20 08:04:55;;;;;;;10.57;5.95;;;2.60;99.90;;;;;;5004328;28;20061;-70
2021/03/20 08:07:28;;;;;;;11.63;5.88;;;2.70;99.90;;;;;;5007166;28;20380;-70
2021/03/20 08:10:07;;;;;;;9.02;5.50;;;2.80;99.90;;;;;;5010195;28;20361;-71
2021/03/20 08:12:32;;;;;;;10.60;5.75;;;2.90;99.90;;;;;;5006433;28;20410;-70
2021/03/20 08:15:03;;;;;;;9.55;5.68;;;3.00;99.90;;;;;;5011531;28;20049;-75
2021/03/20 08:17:29;;;;;;;10.60;5.22;;;3.20;99.90;;;;;;5013621;28;20034;-70
2021/03/20 08:19:55;;;;;;;10.38;5.85;;;3.30;99.90;;;;;;5013265;28;20355;-70
2021/03/20 08:22:33;;;;;;;12.73;6.10;;;3.30;99.90;;;;;;5011603;28;20030;-70
2021/03/20 08:25:24;;;;;;;10.32;6.25;;;3.20;99.90;;;;;;5016870;28;20079;-70
2021/03/20 08:28:29;;;;;;;9.95;6.15;;;3.40;99.90;;;;;;4979845;28;20068;-71
2021/03/20 08:31:06;;;;;;;10.45;5.97;;;3.40;99.90;;;;;;5007185;28;20424;-70
2021/03/20 08:34:27;;;;;;;11.10;6.07;;;3.50;99.90;;;;;;5010144;28;20092;-70
2021/03/20 08:37:25;;;;;;;12.00;5.55;;;3.30;99.90;;;;;;4958349;28;20128;-71
2021/03/20 08:40:07;;;;;;;10.40;5.85;;;3.10;99.90;;;;;;5008216;28;20046;-70
2021/03/20 08:42:44;;;;;;;11.07;6.35;;;3.00;99.90;;;;;;5006195;28;20033;-70
2021/03/20 08:45:42;;;;;;;10.55;6.13;;;2.90;99.90;;;;;;5004600;28;20042;-70
2021/03/20 08:48:11;;;;;;;11.48;5.85;;;2.90;99.90;;;;;;4956397;28;20069;-74
2021/03/20 08:50:50;;;;;;;13.95;6.57;;;2.90;99.90;;;;;;5013348;28;20026;-70
2021/03/20 08:53:52;;;;;;;11.90;6.38;;;3.20;99.90;;;;;;5002564;28;20037;-74
2021/03/20 08:57:03;;;;;;;9.40;5.82;;;3.30;99.90;;;;;;5004827;28;20327;-70
2021/03/20 08:59:47;;;;;;;11.30;6.43;;;3.60;99.90;;;;;;5008392;28;20040;-70
2021/03/20 09:02:25;;;;;;;11.38;6.28;;;3.80;99.90;;;;;;5004851;28;20038;-70
2021/03/20 09:05:11;;;;;;;11.05;6.45;;;4.30;99.90;;;;;;5014226;28;20440;-70
2021/03/20 09:07:45;;;;;;;12.45;7.28;;;4.50;99.90;;;;;;5009842;28;20496;-70
2021/03/20 09:10:37;;;;;;;10.82;6.80;;;4.50;99.90;;;;;;5005669;28;20030;-70
2021/03/20 09:13:48;;;;;;;12.32;7.00;;;4.20;99.90;;;;;;5014025;28;20036;-70
2021/03/20 09:16:24;;;;;;;12.73;7.32;;;4.70;99.90;;;;;;4972421;28;20047;-70
2021/03/20 09:18:50;;;;;;;11.38;6.47;;;5.10;99.90;;;;;;4995628;28;20054;-70
2021/03/20 09:21:17;;;;;;;11.50;7.18;;;5.20;99.90;;;;;;5008228;28;20038;-70
2021/03/20 09:23:46;;;;;;;10.60;6.93;;;5.20;99.90;;;;;;5015751;28;20382;-70
2021/03/20 09:26:36;;;;;;;12.15;6.45;;;5.30;99.90;;;;;;5017592;28;20039;-70
2021/03/20 09:29:07;;;;;;;12.77;6.75;;;5.40;99.90;;;;;;5007423;28;20076;-70
2021/03/20 09:31:33;;;;;;;10.57;6.22;;;5.70;99.90;;;;;;5006823;28;20026;-71
2021/03/20 09:34:18;;;;;;;13.55;6.90;;;5.80;99.90;;;;;;5004792;28;20041;-71
2021/03/20 09:36:51;;;;;;;12.90;6.75;;;5.40;99.90;;;;;;5006507;28;20993;-70
2021/03/20 09:39:35;;;;;;;12.15;7.07;;;5.10;99.90;;;;;;5007701;28;20041;-70
2021/03/20 09:42:01;;;;;;;12.85;6.25;;;5.00;99.90;;;;;;5022524;28;20477;-75
2021/03/20 09:44:29;;;;;;;12.77;7.07;;;5.10;99.90;;;;;;5005734;28;20046;-70
2021/03/20 09:46:58;;;;;;;10.63;6.70;;;5.20;99.90;;;;;;5006555;28;20468;-70
2021/03/20 09:49:24;;;;;;;9.27;6.22;;;5.60;99.90;;;;;;4999425;28;20038;-70
2021/03/20 09:51:59;;;;;;;10.05;6.20;;;5.90;99.90;;;;;;5010013;28;20365;-71
2021/03/20 09:54:43;;;;;;;10.15;6.07;;;6.10;99.90;;;;;;5006920;28;20234;-70
2021/03/20 09:59:43;;;;;;;11.25;6.95;;;6.20;99.40;;;;;;5009294;28;20045;-71
2021/03/20 10:02:14;;;;;;;13.25;6.82;;;5.90;99.50;;;;;;5010787;28;20052;-75
2021/03/20 10:04:52;;;;;;;12.52;6.88;;;5.60;98.50;;;;;;5004550;28;20840;-71
2021/03/20 10:07:20;;;;;;;10.30;6.57;;;5.40;98.40;;;;;;5008205;28;20022;-76
2021/03/20 10:10:11;;;;;;;10.98;6.45;;;5.50;99.00;;;;;;5011011;28;20033;-71
2021/03/20 10:12:40;;;;;;;9.30;5.80;;;5.60;99.20;;;;;;5009675;28;20128;-71
2021/03/20 10:15:15;;;;;;;8.07;4.90;;;5.70;98.40;;;;;;5002509;28;20037;-71
2021/03/20 10:18:03;;;;;;;9.27;4.88;;;6.10;98.20;;;;;;5010036;28;20053;-71
2021/03/20 10:20:50;;;;;;;8.25;4.68;;;6.00;94.40;;;;;;5002471;28;20045;-71
2021/03/20 10:23:38;;;;;;;10.18;4.75;;;6.00;93.80;;;;;;5001538;28;20030;-71
2021/03/20 10:26:14;;;;;;;8.43;5.15;;;5.90;95.10;;;;;;5003181;28;20030;-71
2021/03/20 10:28:45;;;;;;;10.30;4.05;;;6.10;94.60;;;;;;5004145;28;20026;-70
2021/03/20 10:31:13;;;;;;;10.82;4.18;;;6.10;93.10;;;;;;5005178;28;20038;-71
2021/03/20 10:33:44;;;;;;;8.68;4.50;;;5.90;93.40;;;;;;5011387;28;20064;-70
2021/03/20 10:36:16;;;;;;;7.63;3.75;;;6.00;92.40;;;;;;5003727;28;20041;-70
2021/03/20 10:38:43;;;;;;;9.07;4.18;;;6.00;92.30;;;;;;5010449;28;20025;-71
2021/03/20 10:41:20;;;;;;;6.43;3.90;;;6.20;93.90;;;;;;5003568;28;20403;-71
2021/03/20 10:44:00;;;;;;;10.88;4.32;;;6.70;93.80;;;;;;5010619;28;20375;-71
2021/03/20 10:46:30;;;;;;;7.18;4.15;;;6.80;92.80;;;;;;5005762;28;20041;-71
2021/03/20 10:48:58;;;;;;;5.82;3.55;;;7.10;91.90;;;;;;5008267;28;20458;-71
2021/03/20 10:51:27;;;;;;;7.18;3.65;;;7.20;92.30;;;;;;5009416;28;20030;-71
2021/03/20 10:54:00;;;;;;;7.20;3.85;;;6.70;90.40;;;;;;5004772;28;20097;-71
2021/03/20 10:56:38;;;;;;;5.45;3.60;;;6.90;90.60;;;;;;5007056;28;20038;-71
2021/03/20 10:59:15;;;;;;;8.02;4.47;;;7.30;91.00;;;;;;5001139;28;20023;-71
2021/03/20 11:01:41;;;;;;;7.55;4.00;;;6.70;85.70;;;;;;5003545;28;20044;-71
2021/03/20 11:04:13;;;;;;;6.85;3.72;;;7.00;90.40;;;;;;5007077;28;20038;-71
2021/03/20 11:06:51;;;;;;;7.80;3.58;;;7.30;89.50;;;;;;5006904;28;20062;-71
2021/03/20 11:09:23;;;;;;;8.65;3.60;;;7.40;87.00;;;;;;5004585;28;20101;-71
2021/03/20 11:11:54;;;;;;;7.57;3.30;;;7.50;87.90;;;;;;5004227;28;20037;-71
2021/03/20 11:14:21;;;;;;;6.63;3.28;;;7.40;86.00;;;;;;5005989;28;20038;-71
2021/03/20 11:17:07;;;;;;;6.57;3.47;;;7.40;84.50;;;;;;5007829;28;20095;-71
2021/03/20 11:19:40;;;;;;;6.93;3.88;;;7.70;88.50;;;;;;5011124;28;20068;-71
2021/03/20 11:22:26;;;;;;;7.65;3.17;;;7.40;83.10;;;;;;5008028;28;20548;-71
2021/03/20 11:24:57;;;;;;;7.75;3.88;;;7.40;84.90;;;;;;5020297;28;20034;-71
2021/03/20 11:27:29;;;;;;;6.03;3.47;;;7.80;85.40;;;;;;5015097;28;20041;-71
2021/03/20 11:30:18;;;;;;;6.55;3.58;;;8.00;84.30;;;;;;5011862;28;20030;-75
2021/03/20 11:32:46;;;;;;;6.55;3.60;;;7.80;82.50;;;;;;5018423;28;20057;-76
2021/03/20 11:35:32;;;;;;;6.68;3.55;;;8.30;84.80;;;;;;5014097;28;20034;-71
2021/03/20 11:38:01;;;;;;;6.82;3.47;;;8.50;84.90;;;;;;5013604;28;20029;-71
2021/03/20 11:40:55;;;;;;;6.63;3.85;;;8.50;82.60;;;;;;5013961;28;20594;-71
2021/03/20 11:43:28;;;;;;;7.10;3.65;;;8.40;82.00;;;;;;5006647;28;20337;-71
2021/03/20 11:46:07;;;;;;;6.38;3.58;;;8.40;76.40;;;;;;5011794;28;20037;-71
2021/03/20 11:48:37;;;;;;;6.53;3.63;;;8.70;83.10;;;;;;5018357;28;20478;-71
2021/03/20 11:51:11;;;;;;;6.97;3.45;;;8.60;79.40;;;;;;5009313;28;20497;-71
2021/03/20 11:53:44;;;;;;;6.10;3.35;;;8.40;75.20;;;;;;5011861;28;20037;-71
2021/03/20 11:56:50;;;;;;;7.20;3.50;;;9.00;78.60;;;;;;5009417;28;20498;-71
2021/03/20 11:59:42;;;;;;;7.47;3.58;;;8.70;75.20;;;;;;4978730;28;20053;-71
2021/03/20 12:02:32;;;;;;;6.70;3.45;;;8.50;78.10;;;;;;5015805;28;20471;-71
2021/03/20 12:05:09;;;;;;;6.60;3.78;;;8.90;77.10;;;;;;5018628;28;20029;-71
2021/03/20 12:07:34;;;;;;;6.70;3.75;;;9.10;75.40;;;;;;5012671;28;20160;-72
2021/03/20 12:10:20;;;;;;;7.13;3.70;;;9.40;75.60;;;;;;5019700;28;20136;-71
2021/03/20 12:12:56;;;;;;;8.85;4.03;;;9.40;78.30;;;;;;5015415;28;20391;-71
2021/03/20 12:15:31;;;;;;;6.68;3.97;;;8.70;73.50;;;;;;5007811;28;20056;-71
2021/03/20 12:18:00;;;;;;;8.27;3.60;;;8.80;76.00;;;;;;5008485;28;20049;-71
2021/03/20 12:20:25;;;;;;;7.90;3.72;;;8.50;74.30;;;;;;5011848;28;20377;-72
2021/03/20 12:22:52;;;;;;;9.48;4.15;;;8.90;75.20;;;;;;5011960;28;20146;-70
2021/03/20 12:25:30;;;;;;;8.13;3.85;;;8.70;74.70;;;;;;5009583;28;20030;-71
2021/03/20 12:28:17;;;;;;;8.82;3.38;;;8.80;73.10;;;;;;5003183;28;21200;-70
2021/03/20 12:30:43;;;;;;;6.57;3.08;;;9.10;72.90;;;;;;5008657;28;20034;-70
2021/03/20 12:33:11;;;;;;;6.20;3.35;;;9.10;73.70;;;;;;5009229;28;20072;-70
2021/03/20 12:35:43;;;;;;;6.07;3.22;;;9.20;75.90;;;;;;5007390;28;20040;-70
2021/03/20 12:38:17;;;;;;;5.88;3.28;;;9.20;72.00;;;;;;5004149;28;21136;-75
2021/03/20 12:41:04;;;;;;;11.50;3.53;;;8.80;71.90;;;;;;5003123;28;20490;-72
2021/03/20 12:43:35;;;;;;;6.95;3.25;;;9.00;72.60;;;;;;5009842;28;20636;-70
2021/03/20 12:46:04;;;;;;;5.43;2.65;;;8.80;72.60;;;;;;5005858;28;20030;-70
2021/03/20 12:48:32;;;;;;;6.07;3.17;;;8.90;71.60;;;;;;5008758;28;20041;-71
2021/03/20 12:51:05;;;;;;;7.95;3.72;;;9.20;72.70;;;;;;5015882;28;20134;-71
2021/03/20 12:53:31;;;;;;;6.07;3.10;;;9.20;71.70;;;;;;5015892;28;20029;-71
2021/03/20 12:55:57;;;;;;;8.85;3.13;;;9.10;70.90;;;;;;5016331;28;20044;-74
2021/03/20 12:58:22;;;;;;;6.07;3.28;;;8.90;71.10;;;;;;5003553;28;20104;-70
2021/03/20 13:00:48;;;;;;;7.80;3.50;;;8.90;70.80;;;;;;5009297;28;20044;-71
2021/03/20 13:03:14;;;;;;;5.90;3.50;;;8.40;68.30;;;;;;5013416;28;20041;-71
2021/03/20 13:05:43;;;;;;;6.60;3.22;;;8.20;67.20;;;;;;5005490;28;20113;-75
2021/03/20 13:08:09;;;;;;;8.18;3.55;;;8.50;70.20;;;;;;5007887;28;20565;-70
2021/03/20 13:10:35;;;;;;;6.90;3.80;;;8.60;69.60;;;;;;5005427;28;20668;-70
2021/03/20 13:13:01;;;;;;;6.00;2.97;;;8.90;70.20;;;;;;5012997;28;20033;-71
2021/03/20 13:15:27;;;;;;;5.35;2.85;;;8.90;70.40;;;;;;5009022;28;20561;-70
2021/03/20 13:17:53;;;;;;;6.22;3.10;;;8.60;67.60;;;;;;5003362;28;20499;-75
2021/03/20 13:20:21;;;;;;;5.25;3.10;;;8.50;69.50;;;;;;5012327;28;20044;-70
2021/03/20 13:22:47;;;;;;;5.25;2.92;;;8.70;69.60;;;;;;5015042;28;20038;-70
2021/03/20 13:25:24;;;;;;;6.13;3.50;;;8.80;69.50;;;;;;5003484;28;20121;-71